sensor_id;sensor_type;location;lat;lon;timestamp;pressure;altitude;pressure_sealevel;temperature;humidity
52319;BME280;38258;51.148;14.068;2023-07-24T00:00:43;97576.41;;;18.34;91.95
52319;BME280;38258;51.148;14.068;2023-07-24T00:03:10;97578.44;;;18.30;91.65
52319;BME280;38258;51.148;14.068;2023-07-24T00:05:38;97577.25;;;18.34;90.28
52319;BME280;38258;51.148;14.068;2023-07-24T00:08:05;97566.94;;;18.18;92.84
52319;BME280;38258;51.148;14.068;2023-07-24T00:10:32;97561.03;;;18.15;94.71
52319;BME280;38258;51.148;14.068;2023-07-24T00:12:59;97551.88;;;17.94;96.89
52319;BME280;38258;51.148;14.068;2023-07-24T00:15:26;97559.69;;;17.96;96.21
52319;BME280;38258;51.148;14.068;2023-07-24T00:17:53;97554.16;;;17.62;100.00
52319;BME280;38258;51.148;14.068;2023-07-24T00:20:20;97552.28;;;17.38;100.00
52319;BME280;38258;51.148;14.068;2023-07-24T00:22:48;97557.56;;;17.38;100.00
52319;BME280;38258;51.148;14.068;2023-07-24T00:25:15;97552.28;;;17.12;100.00
52319;BME280;38258;51.148;14.068;2023-07-24T00:27:42;97547.41;;;17.19;100.00
52319;BME280;38258;51.148;14.068;2023-07-24T00:30:09;97554.16;;;16.97;100.00
52319;BME280;38258;51.148;14.068;2023-07-24T00:32:36;97554.13;;;16.71;100.00
52319;BME280;38258;51.148;14.068;2023-07-24T00:35:04;97562.13;;;16.57;100.00
52319;BME280;38258;51.148;14.068;2023-07-24T00:37:31;97568.78;;;16.35;100.00
52319;BME280;38258;51.148;14.068;2023-07-24T00:39:59;97557.88;;;16.54;100.00
52319;BME280;38258;51.148;14.068;2023-07-24T00:42:25;97546.03;;;16.87;100.00
52319;BME280;38258;51.148;14.068;2023-07-24T00:44:52;97540.16;;;17.09;100.00
52319;BME280;38258;51.148;14.068;2023-07-24T00:47:19;97526.81;;;17.37;100.00
52319;BME280;38258;51.148;14.068;2023-07-24T00:49:47;97531.81;;;17.29;100.00
52319;BME280;38258;51.148;14.068;2023-07-24T00:52:14;97524.91;;;17.26;100.00
52319;BME280;38258;51.148;14.068;2023-07-24T00:54:43;97517.81;;;17.40;100.00
52319;BME280;38258;51.148;14.068;2023-07-24T00:57:13;97513.94;;;17.19;100.00
52319;BME280;38258;51.148;14.068;2023-07-24T00:59:41;97524.53;;;17.57;100.00
52319;BME280;38258;51.148;14.068;2023-07-24T01:02:08;97524.16;;;17.37;100.00
52319;BME280;38258;51.148;14.068;2023-07-24T01:04:38;97527.13;;;17.45;100.00
52319;BME280;38258;51.148;14.068;2023-07-24T01:07:05;97528.38;;;17.27;100.00
52319;BME280;38258;51.148;14.068;2023-07-24T01:09:32;97536.78;;;17.07;100.00
52319;BME280;38258;51.148;14.068;2023-07-24T01:12:03;97542.13;;;16.93;100.00
52319;BME280;38258;51.148;14.068;2023-07-24T01:14:38;97531.75;;;16.77;100.00
52319;BME280;38258;51.148;14.068;2023-07-24T01:17:13;97533.13;;;16.95;100.00
52319;BME280;38258;51.148;14.068;2023-07-24T01:19:42;97529.84;;;16.92;100.00
52319;BME280;38258;51.148;14.068;2023-07-24T01:22:14;97533.72;;;17.01;100.00
52319;BME280;38258;51.148;14.068;2023-07-24T01:25:00;97524.09;;;17.13;100.00
52319;BME280;38258;51.148;14.068;2023-07-24T01:27:32;97530.13;;;17.02;100.00
52319;BME280;38258;51.148;14.068;2023-07-24T01:29:58;97536.19;;;16.89;100.00
52319;BME280;38258;51.148;14.068;2023-07-24T01:32:25;97532.84;;;17.00;100.00
52319;BME280;38258;51.148;14.068;2023-07-24T01:34:52;97520.06;;;17.07;100.00
52319;BME280;38258;51.148;14.068;2023-07-24T01:37:20;97531.22;;;16.98;100.00
52319;BME280;38258;51.148;14.068;2023-07-24T01:39:48;97528.56;;;16.72;100.00
52319;BME280;38258;51.148;14.068;2023-07-24T01:42:16;97526.84;;;16.45;100.00
52319;BME280;38258;51.148;14.068;2023-07-24T01:44:44;97518.72;;;16.20;100.00
52319;BME280;38258;51.148;14.068;2023-07-24T01:47:11;97516.63;;;15.98;100.00
52319;BME280;38258;51.148;14.068;2023-07-24T01:49:38;97515.44;;;15.89;100.00
52319;BME280;38258;51.148;14.068;2023-07-24T01:52:05;97514.94;;;15.82;100.00
52319;BME280;38258;51.148;14.068;2023-07-24T01:54:31;97512.78;;;15.75;100.00
52319;BME280;38258;51.148;14.068;2023-07-24T01:56:58;97515.34;;;15.76;100.00
52319;BME280;38258;51.148;14.068;2023-07-24T01:59:25;97506.09;;;15.83;100.00
52319;BME280;38258;51.148;14.068;2023-07-24T02:01:53;97507.47;;;15.62;100.00
52319;BME280;38258;51.148;14.068;2023-07-24T02:04:20;97509.19;;;15.48;100.00
52319;BME280;38258;51.148;14.068;2023-07-24T02:06:48;97509.66;;;15.40;100.00
52319;BME280;38258;51.148;14.068;2023-07-24T02:09:15;97494.13;;;15.36;100.00
52319;BME280;38258;51.148;14.068;2023-07-24T02:11:42;97505.69;;;15.33;100.00
52319;BME280;38258;51.148;14.068;2023-07-24T02:14:09;97503.38;;;15.29;100.00
52319;BME280;38258;51.148;14.068;2023-07-24T02:16:35;97492.53;;;15.33;100.00
52319;BME280;38258;51.148;14.068;2023-07-24T02:19:04;97495.34;;;15.45;100.00
52319;BME280;38258;51.148;14.068;2023-07-24T02:21:31;97487.72;;;15.40;100.00
52319;BME280;38258;51.148;14.068;2023-07-24T02:23:57;97489.59;;;15.38;100.00
52319;BME280;38258;51.148;14.068;2023-07-24T02:26:24;97484.53;;;15.35;100.00
52319;BME280;38258;51.148;14.068;2023-07-24T02:28:51;97492.91;;;15.27;100.00
52319;BME280;38258;51.148;14.068;2023-07-24T02:31:20;97486.63;;;15.30;100.00
52319;BME280;38258;51.148;14.068;2023-07-24T02:33:48;97488.66;;;15.39;100.00
52319;BME280;38258;51.148;14.068;2023-07-24T02:36:16;97486.44;;;15.33;100.00
52319;BME280;38258;51.148;14.068;2023-07-24T02:38:43;97490.09;;;15.30;100.00
52319;BME280;38258;51.148;14.068;2023-07-24T02:41:10;97498.38;;;15.24;100.00
52319;BME280;38258;51.148;14.068;2023-07-24T02:43:36;97496.22;;;15.31;100.00
52319;BME280;38258;51.148;14.068;2023-07-24T02:46:03;97499.81;;;15.15;100.00
52319;BME280;38258;51.148;14.068;2023-07-24T02:48:30;97499.72;;;15.73;100.00
52319;BME280;38258;51.148;14.068;2023-07-24T02:50:57;97503.75;;;16.34;100.00
52319;BME280;38258;51.148;14.068;2023-07-24T02:53:25;97492.25;;;16.88;100.00
52319;BME280;38258;51.148;14.068;2023-07-24T02:55:51;97495.41;;;16.93;100.00
52319;BME280;38258;51.148;14.068;2023-07-24T02:58:18;97495.59;;;17.42;100.00
52319;BME280;38258;51.148;14.068;2023-07-24T03:00:45;97486.00;;;17.28;100.00
52319;BME280;38258;51.148;14.068;2023-07-24T03:03:12;97487.47;;;17.45;100.00
52319;BME280;38258;51.148;14.068;2023-07-24T03:05:38;97486.78;;;17.55;100.00
52319;BME280;38258;51.148;14.068;2023-07-24T03:08:05;97488.88;;;17.75;100.00
52319;BME280;38258;51.148;14.068;2023-07-24T03:10:33;97481.09;;;17.48;100.00
52319;BME280;38258;51.148;14.068;2023-07-24T03:13:00;97481.13;;;17.35;100.00
52319;BME280;38258;51.148;14.068;2023-07-24T03:15:27;97490.94;;;17.59;100.00
52319;BME280;38258;51.148;14.068;2023-07-24T03:17:54;97492.22;;;17.53;100.00
52319;BME280;38258;51.148;14.068;2023-07-24T03:20:21;97493.78;;;17.56;100.00
52319;BME280;38258;51.148;14.068;2023-07-24T03:22:47;97494.31;;;17.48;100.00
52319;BME280;38258;51.148;14.068;2023-07-24T03:25:14;97496.25;;;17.20;100.00
52319;BME280;38258;51.148;14.068;2023-07-24T03:27:43;97493.75;;;17.18;100.00
52319;BME280;38258;51.148;14.068;2023-07-24T03:30:10;97491.31;;;17.02;100.00
52319;BME280;38258;51.148;14.068;2023-07-24T03:32:37;97491.72;;;17.09;100.00
52319;BME280;38258;51.148;14.068;2023-07-24T03:35:05;97499.38;;;17.01;100.00
52319;BME280;38258;51.148;14.068;2023-07-24T03:37:34;97498.38;;;17.15;100.00
52319;BME280;38258;51.148;14.068;2023-07-24T03:40:00;97491.59;;;16.98;100.00
52319;BME280;38258;51.148;14.068;2023-07-24T03:42:30;97478.84;;;17.04;100.00
52319;BME280;38258;51.148;14.068;2023-07-24T03:44:59;97480.75;;;17.02;100.00
52319;BME280;38258;51.148;14.068;2023-07-24T03:47:26;97480.88;;;17.01;100.00
52319;BME280;38258;51.148;14.068;2023-07-24T03:49:53;97474.06;;;16.96;100.00
52319;BME280;38258;51.148;14.068;2023-07-24T03:52:20;97471.44;;;16.84;100.00
52319;BME280;38258;51.148;14.068;2023-07-24T03:54:47;97477.34;;;16.74;100.00
52319;BME280;38258;51.148;14.068;2023-07-24T03:57:14;97471.94;;;16.63;100.00
52319;BME280;38258;51.148;14.068;2023-07-24T03:59:40;97470.69;;;16.68;100.00
52319;BME280;38258;51.148;14.068;2023-07-24T04:02:08;97463.50;;;16.58;100.00
52319;BME280;38258;51.148;14.068;2023-07-24T04:04:35;97461.38;;;16.63;100.00
52319;BME280;38258;51.148;14.068;2023-07-24T04:07:03;97466.34;;;16.54;100.00
52319;BME280;38258;51.148;14.068;2023-07-24T04:09:30;97452.31;;;16.67;100.00
52319;BME280;38258;51.148;14.068;2023-07-24T04:11:56;97447.13;;;16.65;100.00
52319;BME280;38258;51.148;14.068;2023-07-24T04:14:23;97445.44;;;16.77;100.00
52319;BME280;38258;51.148;14.068;2023-07-24T04:16:50;97447.03;;;16.80;100.00
52319;BME280;38258;51.148;14.068;2023-07-24T04:19:18;97446.72;;;16.85;100.00
52319;BME280;38258;51.148;14.068;2023-07-24T04:21:45;97453.25;;;16.92;100.00
52319;BME280;38258;51.148;14.068;2023-07-24T04:24:11;97436.16;;;16.85;100.00
52319;BME280;38258;51.148;14.068;2023-07-24T04:26:38;97438.59;;;17.01;100.00
52319;BME280;38258;51.148;14.068;2023-07-24T04:29:06;97440.28;;;17.02;100.00
52319;BME280;38258;51.148;14.068;2023-07-24T04:31:32;97433.06;;;17.17;100.00
52319;BME280;38258;51.148;14.068;2023-07-24T04:33:59;97427.63;;;17.44;100.00
52319;BME280;38258;51.148;14.068;2023-07-24T04:36:27;97432.53;;;17.62;100.00
52319;BME280;38258;51.148;14.068;2023-07-24T04:38:54;97431.97;;;17.70;100.00
52319;BME280;38258;51.148;14.068;2023-07-24T04:41:21;97430.84;;;17.61;100.00
52319;BME280;38258;51.148;14.068;2023-07-24T04:43:48;97433.25;;;17.64;100.00
52319;BME280;38258;51.148;14.068;2023-07-24T04:46:14;97432.44;;;17.88;100.00
52319;BME280;38258;51.148;14.068;2023-07-24T04:48:41;97428.53;;;17.80;100.00
52319;BME280;38258;51.148;14.068;2023-07-24T04:51:08;97418.75;;;17.94;100.00
52319;BME280;38258;51.148;14.068;2023-07-24T04:53:36;97419.22;;;18.12;100.00
52319;BME280;38258;51.148;14.068;2023-07-24T04:56:03;97422.88;;;18.22;100.00
52319;BME280;38258;51.148;14.068;2023-07-24T04:58:30;97421.53;;;18.28;100.00
52319;BME280;38258;51.148;14.068;2023-07-24T05:00:56;97424.72;;;18.56;100.00
52319;BME280;38258;51.148;14.068;2023-07-24T05:03:23;97424.75;;;18.79;99.63
52319;BME280;38258;51.148;14.068;2023-07-24T05:05:54;97419.59;;;18.89;98.84
52319;BME280;38258;51.148;14.068;2023-07-24T05:08:21;97414.41;;;18.99;98.16
52319;BME280;38258;51.148;14.068;2023-07-24T05:10:53;97408.38;;;18.97;100.00
52319;BME280;38258;51.148;14.068;2023-07-24T05:13:20;97405.63;;;18.98;100.00
52319;BME280;38258;51.148;14.068;2023-07-24T05:15:47;97410.81;;;19.00;100.00
52319;BME280;38258;51.148;14.068;2023-07-24T05:18:14;97404.41;;;18.91;100.00
52319;BME280;38258;51.148;14.068;2023-07-24T05:20:43;97416.59;;;18.93;100.00
52319;BME280;38258;51.148;14.068;2023-07-24T05:23:10;97412.50;;;19.35;95.76
52319;BME280;38258;51.148;14.068;2023-07-24T05:25:37;97406.22;;;19.47;94.76
52319;BME280;38258;51.148;14.068;2023-07-24T05:28:05;97410.59;;;19.70;96.45
52319;BME280;38258;51.148;14.068;2023-07-24T05:30:32;97403.00;;;19.76;100.00
52319;BME280;38258;51.148;14.068;2023-07-24T05:32:59;97401.59;;;19.94;99.03
52319;BME280;38258;51.148;14.068;2023-07-24T05:35:26;97401.84;;;20.02;100.00
52319;BME280;38258;51.148;14.068;2023-07-24T05:37:53;97417.63;;;20.03;100.00
52319;BME280;38258;51.148;14.068;2023-07-24T05:40:20;97411.72;;;20.32;92.51
52319;BME280;38258;51.148;14.068;2023-07-24T05:42:47;97402.63;;;20.35;90.06
52319;BME280;38258;51.148;14.068;2023-07-24T05:45:15;97408.53;;;20.39;88.23
52319;BME280;38258;51.148;14.068;2023-07-24T05:47:42;97413.56;;;20.42;90.33
52319;BME280;38258;51.148;14.068;2023-07-24T05:50:09;97405.88;;;20.39;91.17
52319;BME280;38258;51.148;14.068;2023-07-24T05:52:38;97398.34;;;20.44;90.65
52319;BME280;38258;51.148;14.068;2023-07-24T05:55:06;97398.59;;;20.41;87.66
52319;BME280;38258;51.148;14.068;2023-07-24T05:57:33;97401.13;;;20.42;88.33
52319;BME280;38258;51.148;14.068;2023-07-24T06:00:00;97397.78;;;20.40;89.22
52319;BME280;38258;51.148;14.068;2023-07-24T06:02:28;97397.72;;;20.52;87.29
52319;BME280;38258;51.148;14.068;2023-07-24T06:04:55;97396.47;;;20.56;87.03
52319;BME280;38258;51.148;14.068;2023-07-24T06:07:22;97393.22;;;20.52;90.47
52319;BME280;38258;51.148;14.068;2023-07-24T06:09:49;97395.34;;;20.58;86.61
52319;BME280;38258;51.148;14.068;2023-07-24T06:12:15;97390.81;;;20.70;87.33
52319;BME280;38258;51.148;14.068;2023-07-24T06:14:42;97398.91;;;20.69;89.50
52319;BME280;38258;51.148;14.068;2023-07-24T06:17:09;97399.91;;;20.77;86.25
52319;BME280;38258;51.148;14.068;2023-07-24T06:19:37;97390.41;;;20.96;86.51
52319;BME280;38258;51.148;14.068;2023-07-24T06:22:04;97397.56;;;21.05;87.74
52319;BME280;38258;51.148;14.068;2023-07-24T06:24:30;97392.03;;;21.18;88.08
52319;BME280;38258;51.148;14.068;2023-07-24T06:26:57;97392.91;;;21.39;84.51
52319;BME280;38258;51.148;14.068;2023-07-24T06:31:52;97391.00;;;21.70;81.63
52319;BME280;38258;51.148;14.068;2023-07-24T06:34:19;97388.22;;;21.72;79.37
52319;BME280;38258;51.148;14.068;2023-07-24T06:36:47;97391.84;;;21.61;83.74
52319;BME280;38258;51.148;14.068;2023-07-24T06:39:14;97393.13;;;21.77;83.15
52319;BME280;38258;51.148;14.068;2023-07-24T06:41:41;97386.53;;;22.00;76.69
52319;BME280;38258;51.148;14.068;2023-07-24T06:44:07;97391.97;;;22.28;74.71
52319;BME280;38258;51.148;14.068;2023-07-24T06:46:34;97390.03;;;22.50;74.24
52319;BME280;38258;51.148;14.068;2023-07-24T06:49:01;97392.38;;;22.63;72.22
52319;BME280;38258;51.148;14.068;2023-07-24T06:51:28;97393.09;;;22.55;75.05
52319;BME280;38258;51.148;14.068;2023-07-24T06:53:56;97391.13;;;22.57;70.95
52319;BME280;38258;51.148;14.068;2023-07-24T06:56:22;97387.34;;;22.60;71.72
52319;BME280;38258;51.148;14.068;2023-07-24T06:58:49;97395.88;;;22.44;68.34
52319;BME280;38258;51.148;14.068;2023-07-24T07:01:16;97393.78;;;22.57;70.95
52319;BME280;38258;51.148;14.068;2023-07-24T07:03:42;97390.66;;;22.72;69.54
52319;BME280;38258;51.148;14.068;2023-07-24T07:06:09;97383.97;;;22.96;67.08
52319;BME280;38258;51.148;14.068;2023-07-24T07:08:37;97394.66;;;23.24;64.78
52319;BME280;38258;51.148;14.068;2023-07-24T07:11:05;97384.91;;;23.42;65.02
52319;BME280;38258;51.148;14.068;2023-07-24T07:13:32;97392.63;;;23.46;62.37
52319;BME280;38258;51.148;14.068;2023-07-24T07:15:59;97387.59;;;23.61;62.12
52319;BME280;38258;51.148;14.068;2023-07-24T07:18:25;97387.97;;;23.84;61.79
52319;BME280;38258;51.148;14.068;2023-07-24T07:20:53;97388.78;;;24.12;61.93
52319;BME280;38258;51.148;14.068;2023-07-24T07:23:20;97386.31;;;24.19;61.74
52319;BME280;38258;51.148;14.068;2023-07-24T07:25:47;97388.06;;;24.28;58.86
52319;BME280;38258;51.148;14.068;2023-07-24T07:28:16;97392.78;;;24.35;57.60
52319;BME280;38258;51.148;14.068;2023-07-24T07:30:43;97374.19;;;24.78;57.99
52319;BME280;38258;51.148;14.068;2023-07-24T07:33:10;97380.94;;;24.64;59.47
52319;BME280;38258;51.148;14.068;2023-07-24T07:35:37;97374.97;;;24.70;56.14
52319;BME280;38258;51.148;14.068;2023-07-24T07:38:03;97375.28;;;24.93;55.98
52319;BME280;38258;51.148;14.068;2023-07-24T07:40:30;97376.88;;;25.12;54.94
52319;BME280;38258;51.148;14.068;2023-07-24T07:42:57;97372.25;;;25.31;53.60
52319;BME280;38258;51.148;14.068;2023-07-24T07:45:25;97373.22;;;25.22;52.98
52319;BME280;38258;51.148;14.068;2023-07-24T07:47:52;97369.69;;;25.73;53.06
52319;BME280;38258;51.148;14.068;2023-07-24T07:50:19;97372.72;;;26.03;51.56
52319;BME280;38258;51.148;14.068;2023-07-24T07:52:49;97362.03;;;25.94;49.79
52319;BME280;38258;51.148;14.068;2023-07-24T07:55:18;97363.19;;;25.75;49.72
52319;BME280;38258;51.148;14.068;2023-07-24T07:57:45;97354.81;;;25.70;50.10
52319;BME280;38258;51.148;14.068;2023-07-24T08:00:12;97359.81;;;25.81;49.74
52319;BME280;38258;51.148;14.068;2023-07-24T08:02:40;97362.50;;;25.81;49.89
52319;BME280;38258;51.148;14.068;2023-07-24T08:05:08;97343.00;;;25.38;51.31
52319;BME280;38258;51.148;14.068;2023-07-24T08:07:35;97346.13;;;25.85;52.22
52319;BME280;38258;51.148;14.068;2023-07-24T08:10:02;97344.09;;;25.62;50.26
52319;BME280;38258;51.148;14.068;2023-07-24T08:12:29;97333.91;;;25.90;50.27
52319;BME280;38258;51.148;14.068;2023-07-24T08:14:56;97345.81;;;26.21;49.80
52319;BME280;38258;51.148;14.068;2023-07-24T08:17:23;97326.84;;;26.39;48.29
52319;BME280;38258;51.148;14.068;2023-07-24T08:19:52;97341.94;;;26.32;48.54
52319;BME280;38258;51.148;14.068;2023-07-24T08:22:19;97327.56;;;26.81;46.32
52319;BME280;38258;51.148;14.068;2023-07-24T08:24:48;97322.06;;;26.74;45.89
52319;BME280;38258;51.148;14.068;2023-07-24T08:27:15;97319.97;;;27.33;44.00
52319;BME280;38258;51.148;14.068;2023-07-24T08:29:42;97311.41;;;27.69;45.39
52319;BME280;38258;51.148;14.068;2023-07-24T08:32:09;97316.47;;;27.01;44.86
52319;BME280;38258;51.148;14.068;2023-07-24T08:34:36;97315.47;;;26.93;49.45
52319;BME280;38258;51.148;14.068;2023-07-24T08:37:04;97309.13;;;27.58;44.68
52319;BME280;38258;51.148;14.068;2023-07-24T08:39:31;97321.53;;;27.50;41.13
52319;BME280;38258;51.148;14.068;2023-07-24T08:41:58;97315.09;;;27.05;43.35
52319;BME280;38258;51.148;14.068;2023-07-24T08:44:25;97310.78;;;26.95;45.20
52319;BME280;38258;51.148;14.068;2023-07-24T08:46:56;97310.59;;;26.97;46.52
52319;BME280;38258;51.148;14.068;2023-07-24T08:49:24;97306.69;;;27.40;46.52
52319;BME280;38258;51.148;14.068;2023-07-24T08:51:51;97300.75;;;27.76;46.20
52319;BME280;38258;51.148;14.068;2023-07-24T08:54:20;97304.59;;;28.20;43.89
52319;BME280;38258;51.148;14.068;2023-07-24T08:56:47;97303.84;;;27.88;42.32
52319;BME280;38258;51.148;14.068;2023-07-24T08:59:15;97300.16;;;28.04;43.74
52319;BME280;38258;51.148;14.068;2023-07-24T09:01:43;97284.47;;;29.06;43.27
52319;BME280;38258;51.148;14.068;2023-07-24T09:04:10;97276.22;;;29.08;40.04
52319;BME280;38258;51.148;14.068;2023-07-24T09:06:37;97278.91;;;29.08;39.43
52319;BME280;38258;51.148;14.068;2023-07-24T09:09:12;97288.59;;;29.60;40.88
52319;BME280;38258;51.148;14.068;2023-07-24T09:11:48;97284.34;;;29.73;38.52
52319;BME280;38258;51.148;14.068;2023-07-24T09:14:22;97278.31;;;29.93;40.25
52319;BME280;38258;51.148;14.068;2023-07-24T09:16:49;97287.09;;;29.80;38.01
52319;BME280;38258;51.148;14.068;2023-07-24T09:19:19;97281.84;;;30.15;38.93
52319;BME280;38258;51.148;14.068;2023-07-24T09:21:45;97292.81;;;29.70;37.82
52319;BME280;38258;51.148;14.068;2023-07-24T09:24:13;97291.88;;;29.56;37.87
52319;BME280;38258;51.148;14.068;2023-07-24T09:26:52;97295.13;;;29.14;40.28
52319;BME280;38258;51.148;14.068;2023-07-24T09:29:19;97292.56;;;28.46;40.97
52319;BME280;38258;51.148;14.068;2023-07-24T09:31:46;97301.19;;;28.03;41.70
52319;BME280;38258;51.148;14.068;2023-07-24T09:34:14;97294.44;;;28.60;39.16
52319;BME280;38258;51.148;14.068;2023-07-24T09:36:42;97272.69;;;29.07;38.79
52319;BME280;38258;51.148;14.068;2023-07-24T09:39:22;97282.81;;;30.07;37.21
52319;BME280;38258;51.148;14.068;2023-07-24T09:41:51;97264.91;;;29.77;38.00
52319;BME280;38258;51.148;14.068;2023-07-24T09:44:19;97264.97;;;29.84;37.95
52319;BME280;38258;51.148;14.068;2023-07-24T09:46:46;97265.03;;;30.19;36.83
52319;BME280;38258;51.148;14.068;2023-07-24T09:49:13;97265.53;;;30.01;38.16
52319;BME280;38258;51.148;14.068;2023-07-24T09:51:42;97246.72;;;29.58;37.88
52319;BME280;38258;51.148;14.068;2023-07-24T09:54:17;97265.88;;;29.11;37.73
52319;BME280;38258;51.148;14.068;2023-07-24T09:56:51;97259.94;;;28.64;39.26
52319;BME280;38258;51.148;14.068;2023-07-24T09:59:19;97268.34;;;28.31;40.24
52319;BME280;38258;51.148;14.068;2023-07-24T10:01:47;97243.63;;;28.20;41.90
52319;BME280;38258;51.148;14.068;2023-07-24T10:04:15;97249.16;;;28.19;41.38
52319;BME280;38258;51.148;14.068;2023-07-24T10:06:43;97256.72;;;28.00;41.82
52319;BME280;38258;51.148;14.068;2023-07-24T10:09:11;97242.13;;;28.33;42.14
52319;BME280;38258;51.148;14.068;2023-07-24T10:11:39;97242.28;;;28.46;42.23
52319;BME280;38258;51.148;14.068;2023-07-24T10:14:07;97245.41;;;29.75;39.57
52319;BME280;38258;51.148;14.068;2023-07-24T10:16:36;97248.94;;;28.96;40.67
52319;BME280;38258;51.148;14.068;2023-07-24T10:19:13;97236.19;;;28.83;40.02
52319;BME280;38258;51.148;14.068;2023-07-24T10:21:44;97228.56;;;29.67;40.16
52319;BME280;38258;51.148;14.068;2023-07-24T10:24:12;97236.38;;;29.61;40.36
52319;BME280;38258;51.148;14.068;2023-07-24T10:26:39;97224.38;;;29.20;41.93
52319;BME280;38258;51.148;14.068;2023-07-24T10:29:08;97233.97;;;28.56;42.42
52319;BME280;38258;51.148;14.068;2023-07-24T10:31:35;97230.63;;;28.24;43.08
52319;BME280;38258;51.148;14.068;2023-07-24T10:34:04;97216.84;;;28.04;43.01
52319;BME280;38258;51.148;14.068;2023-07-24T10:36:33;97224.75;;;27.90;43.50
52319;BME280;38258;51.148;14.068;2023-07-24T10:39:00;97214.06;;;27.82;42.96
52319;BME280;38258;51.148;14.068;2023-07-24T10:41:34;97228.09;;;28.07;44.16
52319;BME280;38258;51.148;14.068;2023-07-24T10:44:01;97233.31;;;27.47;43.42
52319;BME280;38258;51.148;14.068;2023-07-24T10:46:37;97225.78;;;27.66;43.30
52319;BME280;38258;51.148;14.068;2023-07-24T10:49:04;97226.75;;;27.88;43.48
52319;BME280;38258;51.148;14.068;2023-07-24T10:51:31;97233.94;;;28.26;45.12
52319;BME280;38258;51.148;14.068;2023-07-24T10:54:02;97231.56;;;27.78;44.11
52319;BME280;38258;51.148;14.068;2023-07-24T10:56:29;97236.34;;;27.21;44.69
52319;BME280;38258;51.148;14.068;2023-07-24T10:58:56;97249.50;;;26.67;45.95
52319;BME280;38258;51.148;14.068;2023-07-24T11:01:23;97243.91;;;26.46;47.14
52319;BME280;38258;51.148;14.068;2023-07-24T11:03:51;97249.22;;;25.64;49.91
52319;BME280;38258;51.148;14.068;2023-07-24T11:06:19;97251.81;;;25.23;59.58
52319;BME280;38258;51.148;14.068;2023-07-24T11:08:52;97266.09;;;24.89;67.96
52319;BME280;38258;51.148;14.068;2023-07-24T11:11:19;97242.16;;;24.36;76.79
52319;BME280;38258;51.148;14.068;2023-07-24T11:13:45;97253.66;;;24.28;83.33
52319;BME280;38258;51.148;14.068;2023-07-24T11:16:12;97255.03;;;24.14;82.96
52319;BME280;38258;51.148;14.068;2023-07-24T11:18:46;97244.28;;;23.79;82.96
52319;BME280;38258;51.148;14.068;2023-07-24T11:21:15;97264.47;;;23.37;90.28
52319;BME280;38258;51.148;14.068;2023-07-24T11:23:47;97284.66;;;22.66;97.25
52319;BME280;38258;51.148;14.068;2023-07-24T11:26:22;97260.41;;;22.21;100.00
52319;BME280;38258;51.148;14.068;2023-07-24T11:28:54;97251.06;;;21.97;100.00
52319;BME280;38258;51.148;14.068;2023-07-24T11:31:23;97251.53;;;22.68;100.00
52319;BME280;38258;51.148;14.068;2023-07-24T11:33:59;97238.28;;;23.59;100.00
52319;BME280;38258;51.148;14.068;2023-07-24T11:36:51;97215.91;;;25.67;100.00
52319;BME280;38258;51.148;14.068;2023-07-24T11:39:37;97207.03;;;25.66;96.21
52319;BME280;38258;51.148;14.068;2023-07-24T11:42:17;97200.69;;;25.76;97.91
52319;BME280;38258;51.148;14.068;2023-07-24T11:45:01;97193.94;;;24.97;90.01
52319;BME280;38258;51.148;14.068;2023-07-24T11:47:46;97218.31;;;24.42;100.00
52319;BME280;38258;51.148;14.068;2023-07-24T11:50:14;97216.63;;;24.07;100.00
52319;BME280;38258;51.148;14.068;2023-07-24T11:52:46;97214.72;;;24.25;100.00
52319;BME280;38258;51.148;14.068;2023-07-24T11:55:17;97206.09;;;24.05;97.04
52319;BME280;38258;51.148;14.068;2023-07-24T11:57:55;97198.94;;;24.14;96.88
52319;BME280;38258;51.148;14.068;2023-07-24T12:00:22;97205.28;;;24.05;91.33
52319;BME280;38258;51.148;14.068;2023-07-24T12:02:49;97198.59;;;23.82;89.38
52319;BME280;38258;51.148;14.068;2023-07-24T12:05:18;97187.84;;;23.74;88.18
52319;BME280;38258;51.148;14.068;2023-07-24T12:07:58;97195.78;;;23.66;92.82
52319;BME280;38258;51.148;14.068;2023-07-24T12:10:26;97196.81;;;23.91;88.14
52319;BME280;38258;51.148;14.068;2023-07-24T12:12:55;97196.66;;;23.66;90.54
52319;BME280;38258;51.148;14.068;2023-07-24T12:15:24;97206.09;;;23.61;90.21
52319;BME280;38258;51.148;14.068;2023-07-24T12:17:52;97198.84;;;23.71;89.66
52319;BME280;38258;51.148;14.068;2023-07-24T12:20:19;97188.28;;;23.88;90.64
52319;BME280;38258;51.148;14.068;2023-07-24T12:22:46;97181.13;;;24.23;87.84
52319;BME280;38258;51.148;14.068;2023-07-24T12:25:15;97177.97;;;24.27;87.53
52319;BME280;38258;51.148;14.068;2023-07-24T12:27:41;97171.63;;;24.20;85.94
52319;BME280;38258;51.148;14.068;2023-07-24T12:30:08;97173.03;;;24.06;90.39
52319;BME280;38258;51.148;14.068;2023-07-24T12:32:37;97166.56;;;24.17;84.43
52319;BME280;38258;51.148;14.068;2023-07-24T12:35:07;97174.97;;;23.96;85.90
52319;BME280;38258;51.148;14.068;2023-07-24T12:37:35;97160.47;;;23.98;87.64
52319;BME280;38258;51.148;14.068;2023-07-24T12:40:02;97156.75;;;23.65;86.89
52319;BME280;38258;51.148;14.068;2023-07-24T12:42:30;97157.28;;;23.68;88.35
52319;BME280;38258;51.148;14.068;2023-07-24T12:44:57;97152.19;;;23.57;86.27
52319;BME280;38258;51.148;14.068;2023-07-24T12:47:26;97139.97;;;23.46;91.42
52319;BME280;38258;51.148;14.068;2023-07-24T12:49:53;97140.03;;;23.54;91.55
52319;BME280;38258;51.148;14.068;2023-07-24T12:52:21;97154.97;;;23.47;90.08